Startpagina
METAR-TAF:

METAR-TAF

Vliegvelden :

Le Touquet, Frankrijk

breedte: 50-30-53N, lengte: 001-37-39E, hoogte: 6 m

Actueel weer

Dit bericht is 25 minuten geleden gemaakt, om 03:00 UTC
Wind 5 kt uit het zuidoosten
Temperatuur 3°C
Vochtigheid 93%
Druk 1024 hPa
Zicht: 4500 m
nevel

METAR: LFAT 240300Z AUTO 13005KT 4500 BR OVC009/// 03/02 Q1024

Tijdstip: 04:25 (03:25 UTC)

Verwachting

Dit bericht is 13 uur en het 25 minuten geleden gemaakt, om 14:00 UTC
Verwachting geldig van 23 om 15 UTC tot 23 om 24 UTC
Wind 9 kt uit het oostnoordoosten
Zicht 10 km of meer
Gebroken wolken op 1700 ft

TAF: LFAT 231400Z 2315/2324 07009KT 9999 BKN017

Waarnemingen en weersverwachtingen van meer dan 4000 vliegvelden (METAR en TAF).

De beschikbare stations zijn de gele en rode punten op de kaart.

Ga met uw muis naar het station om de naam te zien.

Klik dan om waarnemingen en weersverwachtingen te zien.

kaart wijzigen: klik op de groene knoppen met een zwart kruis om in te zoomen, op de groene knop met een streepje om uit te zoomen of op de groene pijlen voor aangrenzende kaarten.


METAR-TAF: